createdAt,value
2023-01-10T00:00:16.142Z,6.16
2023-01-10T00:05:41.141Z,6.17
2023-01-10T00:10:45.183Z,6.19
2023-01-10T00:15:49.511Z,6.21
2023-01-10T00:20:53.247Z,6.16
2023-01-10T00:25:57.073Z,6.17
2023-01-10T00:31:02.376Z,6.14
2023-01-10T00:36:09.101Z,6.14
2023-01-10T00:41:32.713Z,6.15
2023-01-10T00:46:36.458Z,6.14
2023-01-10T00:51:40.070Z,6.15
2023-01-10T00:56:43.685Z,6.16
2023-01-10T01:01:47.612Z,6.18
2023-01-10T01:06:51.621Z,6.15
2023-01-10T01:11:56.616Z,6.16
2023-01-10T01:17:00.239Z,6.21
2023-01-10T01:22:03.960Z,6.21
2023-01-10T01:27:07.477Z,6.22
2023-01-10T01:32:11.155Z,6.24
2023-01-10T01:37:15.262Z,6.24
2023-01-10T01:42:30.947Z,6.24
2023-01-10T01:47:41.916Z,6.24
2023-01-10T01:52:49.004Z,6.22
2023-01-10T01:57:58.136Z,6.28
2023-01-10T02:03:03.730Z,6.30
2023-01-10T02:08:08.635Z,6.31
2023-01-10T02:13:16.697Z,6.31
2023-01-10T02:18:22.685Z,6.34
2023-01-10T02:24:01.291Z,6.34
2023-01-10T02:29:32.153Z,6.31
2023-01-10T02:35:24.723Z,6.30
2023-01-10T02:40:50.691Z,6.24
2023-01-10T02:46:14.082Z,6.23
2023-01-10T02:51:24.341Z,6.25
2023-01-10T02:56:49.838Z,6.27
2023-01-10T03:02:03.835Z,6.27
2023-01-10T03:07:44.146Z,6.28
2023-01-10T03:13:16.070Z,6.28
2023-01-10T03:18:39.533Z,6.28
2023-01-10T03:23:45.254Z,6.26
2023-01-10T03:29:01.155Z,6.25
2023-01-10T03:34:05.302Z,6.15
2023-01-10T03:39:48.111Z,6.02
2023-01-10T03:45:09.624Z,6.09
2023-01-10T03:50:24.883Z,6.22
2023-01-10T03:55:30.405Z,6.23
2023-01-10T04:00:34.360Z,6.16
2023-01-10T04:05:38.306Z,6.01
2023-01-10T04:10:42.230Z,5.83
2023-01-10T04:15:46.016Z,5.74
2023-01-10T04:20:52.082Z,5.74
2023-01-10T04:25:56.052Z,5.69
2023-01-10T04:30:59.892Z,5.59
2023-01-10T04:36:03.636Z,5.41
2023-01-10T04:41:07.381Z,5.32
2023-01-10T04:46:11.207Z,5.36
2023-01-10T04:51:15.089Z,5.36
2023-01-10T04:56:21.885Z,5.30
2023-01-10T05:01:27.169Z,5.27
2023-01-10T05:06:31.033Z,5.22
2023-01-10T05:11:34.729Z,5.19
2023-01-10T05:16:38.537Z,5.17
2023-01-10T05:21:42.339Z,5.15
2023-01-10T05:26:46.952Z,5.09
2023-01-10T05:31:52.452Z,5.00
2023-01-10T05:36:56.094Z,5.04
2023-01-10T05:42:00.686Z,5.07
2023-01-10T05:47:04.581Z,5.15
2023-01-10T05:52:08.710Z,5.13
2023-01-10T05:57:12.686Z,5.10
2023-01-10T06:02:16.368Z,5.03
2023-01-10T06:07:20.007Z,4.95
2023-01-10T06:12:23.674Z,4.93
2023-01-10T06:17:27.962Z,4.92
2023-01-10T06:22:31.983Z,4.94
2023-01-10T06:27:35.716Z,4.89
2023-01-10T06:32:39.589Z,4.82
2023-01-10T06:37:43.576Z,4.84
2023-01-10T06:42:47.188Z,4.74
2023-01-10T06:47:50.894Z,4.66
2023-01-10T06:53:00.581Z,4.53
2023-01-10T06:58:05.398Z,4.52
2023-01-10T07:03:10.330Z,4.57
2023-01-10T07:08:13.801Z,4.58
2023-01-10T07:13:17.358Z,4.56
2023-01-10T07:18:21.247Z,4.58
2023-01-10T07:23:24.847Z,4.61
2023-01-10T07:28:28.617Z,4.60
2023-01-10T07:33:32.781Z,4.62
2023-01-10T07:38:38.371Z,4.67
2023-01-10T07:43:42.058Z,4.71
2023-01-10T07:48:47.258Z,4.71
2023-01-10T07:53:51.123Z,4.61
2023-01-10T07:58:54.854Z,4.67
2023-01-10T08:03:59.275Z,4.79
2023-01-10T08:09:05.649Z,4.86
2023-01-10T08:14:09.554Z,4.89
2023-01-10T08:19:17.267Z,4.88
2023-01-10T08:24:20.865Z,4.91
2023-01-10T08:29:24.715Z,4.89
2023-01-10T08:34:28.405Z,4.97
2023-01-10T08:39:32.105Z,5.11
2023-01-10T08:44:36.074Z,5.20
2023-01-10T08:49:39.747Z,5.17
2023-01-10T08:54:44.224Z,4.99
2023-01-10T08:59:48.088Z,5.03
2023-01-10T09:04:52.028Z,5.10
2023-01-10T09:09:55.677Z,5.24
2023-01-10T09:14:59.590Z,5.24
2023-01-10T09:20:10.539Z,5.27
2023-01-10T09:25:14.136Z,5.39
2023-01-10T09:30:18.255Z,5.49
2023-01-10T09:35:24.333Z,5.54
2023-01-10T09:41:22.076Z,5.55
2023-01-10T09:47:08.385Z,5.62
2023-01-10T09:52:33.980Z,5.74
2023-01-10T09:57:38.034Z,5.84
2023-01-10T10:02:48.424Z,5.90
2023-01-10T10:08:02.657Z,5.88
2023-01-10T10:13:26.460Z,5.95
2023-01-10T10:19:02.250Z,6.06
2023-01-10T10:24:33.270Z,6.14
2023-01-10T10:29:43.250Z,6.15
2023-01-10T10:35:09.942Z,6.11
2023-01-10T10:40:33.534Z,5.95
2023-01-10T10:45:44.883Z,5.90
2023-01-10T10:51:26.105Z,5.69
2023-01-10T10:56:30.915Z,5.69
2023-01-10T11:01:34.933Z,5.73
2023-01-10T11:06:46.328Z,5.70
2023-01-10T11:11:52.357Z,5.67
2023-01-10T11:17:28.340Z,5.63
2023-01-10T11:22:47.633Z,5.55
2023-01-10T11:28:01.330Z,5.46
2023-01-10T11:33:20.414Z,5.51
2023-01-10T11:38:25.143Z,5.58
2023-01-10T11:43:40.561Z,5.56
2023-01-10T11:49:06.195Z,5.60
2023-01-10T11:54:29.456Z,5.71
2023-01-10T11:59:33.834Z,5.81
2023-01-10T12:04:47.524Z,5.79
2023-01-10T12:10:04.260Z,5.81
2023-01-10T12:15:30.151Z,5.73
2023-01-10T12:20:48.909Z,5.69
2023-01-10T12:26:10.674Z,5.77
2023-01-10T12:31:16.769Z,5.86
2023-01-10T12:37:31.042Z,5.89
2023-01-10T12:43:32.760Z,5.86
2023-01-10T12:48:54.165Z,5.79
2023-01-10T12:54:09.158Z,5.86
2023-01-10T12:59:37.157Z,6.27
2023-01-10T13:04:47.577Z,6.47
2023-01-10T13:09:52.155Z,6.41
2023-01-10T13:15:21.716Z,6.38
2023-01-10T13:20:39.877Z,6.24
2023-01-10T13:25:56.497Z,5.89
2023-01-10T13:31:32.865Z,5.62
2023-01-10T13:36:45.018Z,5.48
2023-01-10T13:42:26.421Z,5.63
2023-01-10T13:47:46.811Z,5.75
2023-01-10T13:52:52.947Z,5.73
2023-01-10T13:58:01.866Z,5.63
2023-01-10T14:03:06.848Z,5.53
2023-01-10T14:08:18.496Z,5.43
2023-01-10T14:13:23.906Z,5.34
2023-01-10T14:18:42.075Z,5.32
2023-01-10T14:23:53.527Z,5.28
2023-01-10T14:29:01.578Z,5.27
2023-01-10T14:34:18.472Z,5.18
2023-01-10T14:39:24.700Z,5.00
2023-01-10T14:44:37.691Z,4.91
2023-01-10T14:49:54.317Z,4.87
2023-01-10T14:55:22.854Z,4.81
2023-01-10T15:00:37.146Z,4.74
2023-01-10T15:05:50.451Z,4.67
2023-01-10T15:11:08.941Z,4.65
2023-01-10T15:16:23.421Z,4.55
2023-01-10T15:21:27.864Z,4.52
2023-01-10T15:26:33.824Z,4.35
2023-01-10T15:31:40.349Z,4.36
2023-01-10T15:36:51.709Z,4.31
2023-01-10T15:42:10.383Z,4.25
2023-01-10T15:47:49.990Z,4.23
2023-01-10T15:53:05.435Z,4.26
2023-01-10T15:58:36.815Z,4.24
2023-01-10T16:03:57.162Z,4.12
2023-01-10T16:09:06.428Z,4.11
2023-01-10T16:14:10.123Z,4.08
2023-01-10T16:19:14.746Z,4.12
2023-01-10T16:24:25.858Z,4.13
2023-01-10T16:29:30.168Z,4.03
2023-01-10T16:34:34.911Z,4.01
2023-01-10T16:39:40.612Z,3.99
2023-01-10T16:44:45.896Z,3.98
2023-01-10T16:49:49.649Z,4.03
2023-01-10T16:54:53.933Z,4.07
2023-01-10T16:59:57.665Z,3.98
2023-01-10T17:05:01.414Z,3.96
2023-01-10T17:10:06.461Z,3.98
2023-01-10T17:15:15.772Z,3.94
2023-01-10T17:20:20.615Z,4.01
2023-01-10T17:25:25.314Z,4.08
2023-01-10T17:30:28.940Z,4.13
2023-01-10T17:35:34.186Z,4.17
2023-01-10T17:40:45.982Z,4.25
2023-01-10T17:45:52.098Z,4.32
2023-01-10T17:51:00.185Z,4.35
2023-01-10T17:56:32.240Z,4.36
2023-01-10T18:01:36.500Z,4.29
2023-01-10T18:06:40.512Z,4.29
2023-01-10T18:11:45.575Z,4.28
2023-01-10T18:16:50.040Z,4.25
2023-01-10T18:21:53.883Z,4.22
2023-01-10T18:26:58.580Z,4.24
2023-01-10T18:32:02.728Z,4.24
2023-01-10T18:37:06.703Z,4.28
2023-01-10T18:42:12.222Z,4.28
2023-01-10T18:47:16.141Z,4.26
2023-01-10T18:52:21.695Z,4.28
2023-01-10T18:57:26.043Z,4.32
2023-01-10T19:02:30.182Z,4.36
2023-01-10T19:07:34.308Z,4.35
2023-01-10T19:12:41.052Z,4.32
2023-01-10T19:17:46.592Z,4.37
2023-01-10T19:22:50.288Z,4.42
2023-01-10T19:27:54.539Z,4.43
2023-01-10T19:33:17.549Z,4.36
2023-01-10T19:38:21.522Z,4.35
2023-01-10T19:43:26.893Z,4.29
2023-01-10T19:48:30.918Z,4.26
2023-01-10T19:53:39.486Z,4.34
2023-01-10T19:58:43.074Z,4.33
2023-01-10T20:03:49.290Z,4.35
2023-01-10T20:08:55.293Z,4.39
2023-01-10T20:14:02.277Z,4.47
2023-01-10T20:19:14.381Z,4.50
2023-01-10T20:24:21.842Z,4.61
2023-01-10T20:29:31.082Z,4.63
2023-01-10T20:34:35.384Z,4.55
2023-01-10T20:39:40.238Z,4.48
2023-01-10T20:44:44.034Z,4.51
2023-01-10T20:49:48.458Z,4.55
2023-01-10T20:54:54.990Z,4.61
2023-01-10T21:00:00.007Z,4.64
2023-01-10T21:05:04.369Z,4.61
2023-01-10T21:10:09.472Z,4.62
2023-01-10T21:15:13.625Z,4.73
2023-01-10T21:20:17.726Z,4.75
2023-01-10T21:25:21.635Z,4.93
2023-01-10T21:30:25.581Z,5.05
2023-01-10T21:35:29.870Z,5.12
2023-01-10T21:40:35.475Z,5.19
2023-01-10T21:45:42.626Z,5.25
2023-01-10T21:50:52.131Z,5.27
2023-01-10T21:56:00.405Z,5.18
2023-01-10T22:01:04.302Z,5.16
2023-01-10T22:06:08.688Z,5.13
2023-01-10T22:11:14.390Z,5.17
2023-01-10T22:16:20.348Z,5.21
2023-01-10T22:21:24.180Z,5.16
2023-01-10T22:26:28.877Z,5.11
2023-01-10T22:31:32.965Z,5.07
2023-01-10T22:36:37.721Z,5.09
2023-01-10T22:41:41.636Z,5.17
2023-01-10T22:46:46.554Z,5.20
2023-01-10T22:51:51.448Z,5.20
2023-01-10T22:56:55.236Z,5.29
2023-01-10T23:01:58.983Z,5.31
2023-01-10T23:07:03.042Z,5.32
2023-01-10T23:12:08.734Z,5.26
2023-01-10T23:17:12.715Z,5.14
2023-01-10T23:22:16.872Z,5.09
2023-01-10T23:27:20.937Z,5.08
2023-01-10T23:32:24.768Z,5.10
2023-01-10T23:37:28.714Z,5.16
2023-01-10T23:42:33.178Z,5.17
2023-01-10T23:47:37.675Z,5.13
2023-01-10T23:52:41.290Z,5.20
2023-01-10T23:57:45.732Z,5.22
